sensor_id;sensor_type;location;lat;lon;timestamp;P1;durP1;ratioP1;P2;durP2;ratioP2
26253;SDS011;53339;51.378;0.094;2022-12-18T00:03:53;37.90;;;15.18;;
26253;SDS011;53339;51.378;0.094;2022-12-18T00:06:23;38.58;;;15.25;;
26253;SDS011;53339;51.378;0.094;2022-12-18T00:08:52;45.00;;;15.32;;
26253;SDS011;53339;51.378;0.094;2022-12-18T00:11:20;42.55;;;15.13;;
26253;SDS011;53339;51.378;0.094;2022-12-18T00:13:50;37.50;;;13.27;;
26253;SDS011;53339;51.378;0.094;2022-12-18T00:16:20;28.38;;;13.10;;
26253;SDS011;53339;51.378;0.094;2022-12-18T00:18:49;34.40;;;12.65;;
26253;SDS011;53339;51.378;0.094;2022-12-18T00:21:19;36.00;;;14.07;;
26253;SDS011;53339;51.378;0.094;2022-12-18T00:23:47;30.60;;;12.40;;
26253;SDS011;53339;51.378;0.094;2022-12-18T00:26:17;35.72;;;14.45;;
26253;SDS011;53339;51.378;0.094;2022-12-18T00:28:45;42.83;;;16.38;;
26253;SDS011;53339;51.378;0.094;2022-12-18T00:31:14;38.50;;;14.50;;
26253;SDS011;53339;51.378;0.094;2022-12-18T00:33:44;32.67;;;12.23;;
26253;SDS011;53339;51.378;0.094;2022-12-18T00:36:17;30.23;;;12.95;;
26253;SDS011;53339;51.378;0.094;2022-12-18T00:38:46;38.72;;;15.35;;
26253;SDS011;53339;51.378;0.094;2022-12-18T00:41:17;38.83;;;14.07;;
26253;SDS011;53339;51.378;0.094;2022-12-18T00:44:05;33.85;;;15.52;;
26253;SDS011;53339;51.378;0.094;2022-12-18T00:46:34;39.90;;;13.70;;
26253;SDS011;53339;51.378;0.094;2022-12-18T00:49:02;36.83;;;13.85;;
26253;SDS011;53339;51.378;0.094;2022-12-18T00:51:30;35.47;;;15.50;;
26253;SDS011;53339;51.378;0.094;2022-12-18T00:53:57;35.10;;;12.93;;
26253;SDS011;53339;51.378;0.094;2022-12-18T00:56:25;36.20;;;13.15;;
26253;SDS011;53339;51.378;0.094;2022-12-18T00:58:52;35.42;;;14.70;;
26253;SDS011;53339;51.378;0.094;2022-12-18T01:01:20;41.35;;;14.20;;
26253;SDS011;53339;51.378;0.094;2022-12-18T01:03:48;42.15;;;14.43;;
26253;SDS011;53339;51.378;0.094;2022-12-18T01:06:16;34.47;;;13.80;;
26253;SDS011;53339;51.378;0.094;2022-12-18T01:08:44;37.83;;;14.57;;
26253;SDS011;53339;51.378;0.094;2022-12-18T01:11:16;40.88;;;13.77;;
26253;SDS011;53339;51.378;0.094;2022-12-18T01:13:45;35.70;;;13.63;;
26253;SDS011;53339;51.378;0.094;2022-12-18T01:16:14;38.97;;;13.10;;
26253;SDS011;53339;51.378;0.094;2022-12-18T01:18:42;37.50;;;15.38;;
26253;SDS011;53339;51.378;0.094;2022-12-18T01:21:12;37.13;;;13.70;;
26253;SDS011;53339;51.378;0.094;2022-12-18T01:23:41;33.42;;;11.68;;
26253;SDS011;53339;51.378;0.094;2022-12-18T01:26:14;38.67;;;12.95;;
26253;SDS011;53339;51.378;0.094;2022-12-18T01:28:43;34.80;;;12.68;;
26253;SDS011;53339;51.378;0.094;2022-12-18T01:31:11;36.15;;;14.93;;
26253;SDS011;53339;51.378;0.094;2022-12-18T01:34:06;32.33;;;12.23;;
26253;SDS011;53339;51.378;0.094;2022-12-18T01:36:35;30.67;;;12.57;;
26253;SDS011;53339;51.378;0.094;2022-12-18T01:39:06;36.33;;;11.55;;
26253;SDS011;53339;51.378;0.094;2022-12-18T01:41:41;32.38;;;13.43;;
26253;SDS011;53339;51.378;0.094;2022-12-18T01:47:41;29.70;;;11.70;;
26253;SDS011;53339;51.378;0.094;2022-12-18T01:52:55;27.27;;;11.27;;
26253;SDS011;53339;51.378;0.094;2022-12-18T01:55:27;34.50;;;10.90;;
26253;SDS011;53339;51.378;0.094;2022-12-18T01:57:58;33.30;;;11.73;;
26253;SDS011;53339;51.378;0.094;2022-12-18T02:00:27;27.98;;;12.70;;
26253;SDS011;53339;51.378;0.094;2022-12-18T02:02:56;22.75;;;9.73;;
26253;SDS011;53339;51.378;0.094;2022-12-18T02:05:29;29.10;;;11.02;;
26253;SDS011;53339;51.378;0.094;2022-12-18T02:08:23;22.27;;;9.50;;
26253;SDS011;53339;51.378;0.094;2022-12-18T02:16:25;28.58;;;11.85;;
26253;SDS011;53339;51.378;0.094;2022-12-18T02:19:00;31.52;;;12.55;;
26253;SDS011;53339;51.378;0.094;2022-12-18T02:21:47;28.80;;;13.95;;
26253;SDS011;53339;51.378;0.094;2022-12-18T02:27:09;25.88;;;10.43;;
26253;SDS011;53339;51.378;0.094;2022-12-18T02:34:44;20.50;;;10.25;;
26253;SDS011;53339;51.378;0.094;2022-12-18T02:37:16;26.25;;;8.27;;
26253;SDS011;53339;51.378;0.094;2022-12-18T02:39:48;26.27;;;11.90;;
26253;SDS011;53339;51.378;0.094;2022-12-18T02:42:17;19.00;;;8.48;;
26253;SDS011;53339;51.378;0.094;2022-12-18T02:44:48;35.83;;;11.25;;
26253;SDS011;53339;51.378;0.094;2022-12-18T02:47:22;27.67;;;11.13;;
26253;SDS011;53339;51.378;0.094;2022-12-18T02:57:51;22.30;;;11.18;;
26253;SDS011;53339;51.378;0.094;2022-12-18T03:03:05;24.73;;;9.60;;
26253;SDS011;53339;51.378;0.094;2022-12-18T03:05:41;28.42;;;10.25;;
26253;SDS011;53339;51.378;0.094;2022-12-18T03:08:24;24.75;;;9.85;;
26253;SDS011;53339;51.378;0.094;2022-12-18T03:11:00;27.48;;;11.77;;
26253;SDS011;53339;51.378;0.094;2022-12-18T03:13:36;23.08;;;10.23;;
26253;SDS011;53339;51.378;0.094;2022-12-18T03:16:22;26.23;;;9.88;;
26253;SDS011;53339;51.378;0.094;2022-12-18T03:18:58;29.15;;;11.60;;
26253;SDS011;53339;51.378;0.094;2022-12-18T03:21:45;32.55;;;12.77;;
26253;SDS011;53339;51.378;0.094;2022-12-18T03:24:18;24.88;;;8.23;;
26253;SDS011;53339;51.378;0.094;2022-12-18T03:26:50;29.90;;;10.32;;
26253;SDS011;53339;51.378;0.094;2022-12-18T03:29:27;24.45;;;10.07;;
26253;SDS011;53339;51.378;0.094;2022-12-18T03:32:28;27.38;;;11.05;;
26253;SDS011;53339;51.378;0.094;2022-12-18T03:35:00;24.20;;;9.57;;
26253;SDS011;53339;51.378;0.094;2022-12-18T03:37:35;25.50;;;10.57;;
26253;SDS011;53339;51.378;0.094;2022-12-18T03:40:03;28.35;;;10.48;;
26253;SDS011;53339;51.378;0.094;2022-12-18T03:45:13;30.48;;;9.77;;
26253;SDS011;53339;51.378;0.094;2022-12-18T03:48:07;30.75;;;10.07;;
26253;SDS011;53339;51.378;0.094;2022-12-18T03:50:46;24.95;;;8.70;;
26253;SDS011;53339;51.378;0.094;2022-12-18T03:53:34;37.15;;;11.77;;
26253;SDS011;53339;51.378;0.094;2022-12-18T03:56:29;28.48;;;10.52;;
26253;SDS011;53339;51.378;0.094;2022-12-18T03:59:04;21.13;;;9.30;;
26253;SDS011;53339;51.378;0.094;2022-12-18T04:01:35;26.08;;;10.13;;
26253;SDS011;53339;51.378;0.094;2022-12-18T04:04:06;24.90;;;8.68;;
26253;SDS011;53339;51.378;0.094;2022-12-18T04:06:38;31.95;;;11.35;;
26253;SDS011;53339;51.378;0.094;2022-12-18T04:09:09;28.20;;;9.38;;
26253;SDS011;53339;51.378;0.094;2022-12-18T04:11:42;27.98;;;9.27;;
26253;SDS011;53339;51.378;0.094;2022-12-18T04:14:13;21.13;;;8.85;;
26253;SDS011;53339;51.378;0.094;2022-12-18T04:16:44;29.75;;;11.38;;
26253;SDS011;53339;51.378;0.094;2022-12-18T04:19:14;25.25;;;9.60;;
26253;SDS011;53339;51.378;0.094;2022-12-18T04:21:44;28.23;;;10.40;;
26253;SDS011;53339;51.378;0.094;2022-12-18T04:24:13;25.67;;;12.00;;
26253;SDS011;53339;51.378;0.094;2022-12-18T04:26:49;31.67;;;12.65;;
26253;SDS011;53339;51.378;0.094;2022-12-18T04:29:22;28.00;;;11.00;;
26253;SDS011;53339;51.378;0.094;2022-12-18T04:31:50;26.95;;;10.20;;
26253;SDS011;53339;51.378;0.094;2022-12-18T04:34:19;23.63;;;9.50;;
26253;SDS011;53339;51.378;0.094;2022-12-18T04:36:50;29.20;;;9.73;;
26253;SDS011;53339;51.378;0.094;2022-12-18T04:39:17;31.35;;;11.27;;
26253;SDS011;53339;51.378;0.094;2022-12-18T04:41:47;27.80;;;9.55;;
26253;SDS011;53339;51.378;0.094;2022-12-18T04:44:15;29.50;;;11.85;;
26253;SDS011;53339;51.378;0.094;2022-12-18T04:46:43;32.90;;;10.55;;
26253;SDS011;53339;51.378;0.094;2022-12-18T04:49:10;35.63;;;11.85;;
26253;SDS011;53339;51.378;0.094;2022-12-18T04:51:38;28.08;;;10.25;;
26253;SDS011;53339;51.378;0.094;2022-12-18T04:54:05;25.40;;;11.15;;
26253;SDS011;53339;51.378;0.094;2022-12-18T04:56:33;37.83;;;11.82;;
26253;SDS011;53339;51.378;0.094;2022-12-18T04:59:00;35.75;;;12.70;;
26253;SDS011;53339;51.378;0.094;2022-12-18T05:01:28;27.52;;;9.75;;
26253;SDS011;53339;51.378;0.094;2022-12-18T05:04:01;27.73;;;11.85;;
26253;SDS011;53339;51.378;0.094;2022-12-18T05:06:29;27.77;;;11.88;;
26253;SDS011;53339;51.378;0.094;2022-12-18T05:08:56;25.20;;;11.70;;
26253;SDS011;53339;51.378;0.094;2022-12-18T05:11:23;25.55;;;11.63;;
26253;SDS011;53339;51.378;0.094;2022-12-18T05:13:51;28.55;;;10.40;;
26253;SDS011;53339;51.378;0.094;2022-12-18T05:16:18;24.58;;;11.32;;
26253;SDS011;53339;51.378;0.094;2022-12-18T05:18:46;30.80;;;12.93;;
26253;SDS011;53339;51.378;0.094;2022-12-18T05:21:14;28.17;;;11.02;;
26253;SDS011;53339;51.378;0.094;2022-12-18T05:23:41;30.00;;;11.35;;
26253;SDS011;53339;51.378;0.094;2022-12-18T05:26:09;31.83;;;11.85;;
26253;SDS011;53339;51.378;0.094;2022-12-18T05:28:43;23.65;;;9.85;;
26253;SDS011;53339;51.378;0.094;2022-12-18T05:31:11;28.05;;;10.63;;
26253;SDS011;53339;51.378;0.094;2022-12-18T05:33:38;32.28;;;10.60;;
26253;SDS011;53339;51.378;0.094;2022-12-18T05:36:07;33.20;;;11.93;;
26253;SDS011;53339;51.378;0.094;2022-12-18T05:38:36;31.13;;;11.07;;
26253;SDS011;53339;51.378;0.094;2022-12-18T05:41:04;30.70;;;12.60;;
26253;SDS011;53339;51.378;0.094;2022-12-18T05:43:33;31.70;;;11.75;;
26253;SDS011;53339;51.378;0.094;2022-12-18T05:46:04;28.25;;;10.68;;
26253;SDS011;53339;51.378;0.094;2022-12-18T05:48:32;29.20;;;11.18;;
26253;SDS011;53339;51.378;0.094;2022-12-18T05:51:05;29.40;;;12.05;;
26253;SDS011;53339;51.378;0.094;2022-12-18T05:53:37;25.52;;;10.43;;
26253;SDS011;53339;51.378;0.094;2022-12-18T05:56:07;30.02;;;12.57;;
26253;SDS011;53339;51.378;0.094;2022-12-18T05:58:35;25.40;;;12.80;;
26253;SDS011;53339;51.378;0.094;2022-12-18T06:01:13;35.33;;;12.20;;
26253;SDS011;53339;51.378;0.094;2022-12-18T06:03:44;30.50;;;11.63;;
26253;SDS011;53339;51.378;0.094;2022-12-18T06:06:19;36.05;;;12.93;;
26253;SDS011;53339;51.378;0.094;2022-12-18T06:08:51;32.55;;;13.80;;
26253;SDS011;53339;51.378;0.094;2022-12-18T06:11:21;26.10;;;9.68;;
26253;SDS011;53339;51.378;0.094;2022-12-18T06:13:50;34.55;;;10.50;;
26253;SDS011;53339;51.378;0.094;2022-12-18T06:16:24;34.05;;;13.32;;
26253;SDS011;53339;51.378;0.094;2022-12-18T06:18:52;31.05;;;12.32;;
26253;SDS011;53339;51.378;0.094;2022-12-18T06:21:20;24.92;;;10.35;;
26253;SDS011;53339;51.378;0.094;2022-12-18T06:23:48;37.28;;;12.63;;
26253;SDS011;53339;51.378;0.094;2022-12-18T06:26:15;31.23;;;12.55;;
26253;SDS011;53339;51.378;0.094;2022-12-18T06:28:43;30.42;;;12.65;;
26253;SDS011;53339;51.378;0.094;2022-12-18T06:31:10;34.47;;;11.23;;
26253;SDS011;53339;51.378;0.094;2022-12-18T06:33:38;30.30;;;13.00;;
26253;SDS011;53339;51.378;0.094;2022-12-18T06:36:08;33.30;;;13.25;;
26253;SDS011;53339;51.378;0.094;2022-12-18T06:38:39;27.23;;;10.90;;
26253;SDS011;53339;51.378;0.094;2022-12-18T06:41:09;28.63;;;10.50;;
26253;SDS011;53339;51.378;0.094;2022-12-18T06:43:44;29.50;;;11.60;;
26253;SDS011;53339;51.378;0.094;2022-12-18T06:46:12;24.58;;;11.32;;
26253;SDS011;53339;51.378;0.094;2022-12-18T06:48:40;26.30;;;9.80;;
26253;SDS011;53339;51.378;0.094;2022-12-18T06:51:07;32.55;;;11.38;;
26253;SDS011;53339;51.378;0.094;2022-12-18T06:53:35;27.60;;;10.10;;
26253;SDS011;53339;51.378;0.094;2022-12-18T06:56:03;29.10;;;11.55;;
26253;SDS011;53339;51.378;0.094;2022-12-18T06:58:35;27.60;;;11.32;;
26253;SDS011;53339;51.378;0.094;2022-12-18T07:01:04;32.45;;;10.52;;
26253;SDS011;53339;51.378;0.094;2022-12-18T07:03:33;24.40;;;10.35;;
26253;SDS011;53339;51.378;0.094;2022-12-18T07:06:01;25.45;;;11.60;;
26253;SDS011;53339;51.378;0.094;2022-12-18T07:08:29;28.75;;;11.65;;
26253;SDS011;53339;51.378;0.094;2022-12-18T07:10:57;25.48;;;10.50;;
26253;SDS011;53339;51.378;0.094;2022-12-18T07:13:25;30.38;;;11.07;;
26253;SDS011;53339;51.378;0.094;2022-12-18T07:15:53;34.17;;;13.05;;
26253;SDS011;53339;51.378;0.094;2022-12-18T07:18:21;33.05;;;12.35;;
26253;SDS011;53339;51.378;0.094;2022-12-18T07:20:48;33.08;;;12.13;;
26253;SDS011;53339;51.378;0.094;2022-12-18T07:23:18;30.67;;;10.77;;
26253;SDS011;53339;51.378;0.094;2022-12-18T07:25:45;30.02;;;10.43;;
26253;SDS011;53339;51.378;0.094;2022-12-18T07:28:12;25.55;;;9.68;;
26253;SDS011;53339;51.378;0.094;2022-12-18T07:30:43;30.25;;;11.65;;
26253;SDS011;53339;51.378;0.094;2022-12-18T07:33:10;30.65;;;10.82;;
26253;SDS011;53339;51.378;0.094;2022-12-18T07:35:38;34.75;;;10.65;;
26253;SDS011;53339;51.378;0.094;2022-12-18T07:38:05;31.85;;;12.63;;
26253;SDS011;53339;51.378;0.094;2022-12-18T07:40:33;28.95;;;11.40;;
26253;SDS011;53339;51.378;0.094;2022-12-18T07:43:00;33.50;;;11.40;;
26253;SDS011;53339;51.378;0.094;2022-12-18T07:45:28;32.30;;;10.82;;
26253;SDS011;53339;51.378;0.094;2022-12-18T07:47:55;32.08;;;11.18;;
26253;SDS011;53339;51.378;0.094;2022-12-18T07:50:23;33.53;;;11.73;;
26253;SDS011;53339;51.378;0.094;2022-12-18T07:52:51;26.95;;;9.90;;
26253;SDS011;53339;51.378;0.094;2022-12-18T07:55:19;28.50;;;10.95;;
26253;SDS011;53339;51.378;0.094;2022-12-18T07:57:46;31.10;;;12.38;;
26253;SDS011;53339;51.378;0.094;2022-12-18T08:00:17;28.15;;;11.30;;
26253;SDS011;53339;51.378;0.094;2022-12-18T08:02:44;28.70;;;12.35;;
26253;SDS011;53339;51.378;0.094;2022-12-18T08:05:12;31.40;;;12.15;;
26253;SDS011;53339;51.378;0.094;2022-12-18T08:07:40;33.20;;;11.25;;
26253;SDS011;53339;51.378;0.094;2022-12-18T08:10:07;31.85;;;11.98;;
26253;SDS011;53339;51.378;0.094;2022-12-18T08:12:35;25.77;;;10.32;;
26253;SDS011;53339;51.378;0.094;2022-12-18T08:15:03;28.92;;;11.60;;
26253;SDS011;53339;51.378;0.094;2022-12-18T08:17:31;30.02;;;11.88;;
26253;SDS011;53339;51.378;0.094;2022-12-18T08:19:58;34.63;;;14.40;;
26253;SDS011;53339;51.378;0.094;2022-12-18T08:22:26;30.95;;;13.00;;
26253;SDS011;53339;51.378;0.094;2022-12-18T08:24:53;31.60;;;12.02;;
26253;SDS011;53339;51.378;0.094;2022-12-18T08:27:20;32.08;;;12.68;;
26253;SDS011;53339;51.378;0.094;2022-12-18T08:29:56;31.80;;;14.75;;
26253;SDS011;53339;51.378;0.094;2022-12-18T08:32:24;33.30;;;13.27;;
26253;SDS011;53339;51.378;0.094;2022-12-18T08:34:53;27.98;;;12.43;;
26253;SDS011;53339;51.378;0.094;2022-12-18T08:37:20;29.75;;;12.75;;
26253;SDS011;53339;51.378;0.094;2022-12-18T08:39:47;30.60;;;12.98;;
26253;SDS011;53339;51.378;0.094;2022-12-18T08:42:15;37.70;;;15.00;;
26253;SDS011;53339;51.378;0.094;2022-12-18T08:45:06;37.22;;;14.57;;
26253;SDS011;53339;51.378;0.094;2022-12-18T08:47:34;32.75;;;13.77;;
26253;SDS011;53339;51.378;0.094;2022-12-18T08:50:01;30.17;;;13.57;;
26253;SDS011;53339;51.378;0.094;2022-12-18T08:52:31;32.45;;;13.02;;
26253;SDS011;53339;51.378;0.094;2022-12-18T08:54:59;32.25;;;13.77;;
26253;SDS011;53339;51.378;0.094;2022-12-18T08:57:26;29.05;;;13.60;;
26253;SDS011;53339;51.378;0.094;2022-12-18T08:59:54;31.48;;;14.48;;
26253;SDS011;53339;51.378;0.094;2022-12-18T09:02:21;32.33;;;13.30;;
26253;SDS011;53339;51.378;0.094;2022-12-18T09:04:49;41.47;;;15.73;;
26253;SDS011;53339;51.378;0.094;2022-12-18T09:07:22;27.23;;;11.90;;
26253;SDS011;53339;51.378;0.094;2022-12-18T09:09:50;32.15;;;14.82;;
26253;SDS011;53339;51.378;0.094;2022-12-18T09:12:17;29.85;;;12.38;;
26253;SDS011;53339;51.378;0.094;2022-12-18T09:14:45;31.15;;;13.27;;
26253;SDS011;53339;51.378;0.094;2022-12-18T09:17:12;39.53;;;14.93;;
26253;SDS011;53339;51.378;0.094;2022-12-18T09:19:40;33.85;;;13.93;;
26253;SDS011;53339;51.378;0.094;2022-12-18T09:22:07;31.17;;;13.38;;
26253;SDS011;53339;51.378;0.094;2022-12-18T09:24:37;37.45;;;14.63;;
26253;SDS011;53339;51.378;0.094;2022-12-18T09:27:06;37.80;;;14.02;;
26253;SDS011;53339;51.378;0.094;2022-12-18T09:29:33;30.30;;;12.00;;
26253;SDS011;53339;51.378;0.094;2022-12-18T09:32:01;31.23;;;13.93;;
26253;SDS011;53339;51.378;0.094;2022-12-18T09:34:28;31.83;;;14.43;;
26253;SDS011;53339;51.378;0.094;2022-12-18T09:36:55;31.95;;;12.80;;
26253;SDS011;53339;51.378;0.094;2022-12-18T09:39:23;30.45;;;12.65;;
26253;SDS011;53339;51.378;0.094;2022-12-18T09:41:51;26.88;;;11.60;;
26253;SDS011;53339;51.378;0.094;2022-12-18T09:44:55;25.83;;;10.35;;
26253;SDS011;53339;51.378;0.094;2022-12-18T09:47:21;38.50;;;13.82;;
26253;SDS011;53339;51.378;0.094;2022-12-18T09:49:55;37.15;;;13.23;;
26253;SDS011;53339;51.378;0.094;2022-12-18T09:55:00;19.08;;;8.05;;
26253;SDS011;53339;51.378;0.094;2022-12-18T09:57:45;32.30;;;13.48;;
26253;SDS011;53339;51.378;0.094;2022-12-18T10:00:19;27.80;;;12.32;;
26253;SDS011;53339;51.378;0.094;2022-12-18T10:02:48;30.48;;;11.38;;
26253;SDS011;53339;51.378;0.094;2022-12-18T10:10:48;32.15;;;10.32;;
26253;SDS011;53339;51.378;0.094;2022-12-18T10:16:09;34.10;;;11.93;;
26253;SDS011;53339;51.378;0.094;2022-12-18T10:21:18;29.00;;;11.02;;
26253;SDS011;53339;51.378;0.094;2022-12-18T10:24:01;32.00;;;14.02;;
26253;SDS011;53339;51.378;0.094;2022-12-18T10:26:35;35.03;;;13.82;;
26253;SDS011;53339;51.378;0.094;2022-12-18T10:29:07;28.70;;;13.32;;
26253;SDS011;53339;51.378;0.094;2022-12-18T10:31:39;30.15;;;12.65;;
26253;SDS011;53339;51.378;0.094;2022-12-18T10:34:10;30.45;;;12.05;;
26253;SDS011;53339;51.378;0.094;2022-12-18T10:36:38;30.75;;;13.27;;
26253;SDS011;53339;51.378;0.094;2022-12-18T10:39:16;37.03;;;17.10;;
26253;SDS011;53339;51.378;0.094;2022-12-18T10:41:49;32.08;;;12.25;;
26253;SDS011;53339;51.378;0.094;2022-12-18T10:44:23;34.35;;;13.07;;
26253;SDS011;53339;51.378;0.094;2022-12-18T10:47:02;36.25;;;15.55;;
26253;SDS011;53339;51.378;0.094;2022-12-18T10:49:36;28.80;;;10.77;;
26253;SDS011;53339;51.378;0.094;2022-12-18T10:52:20;29.80;;;13.90;;
26253;SDS011;53339;51.378;0.094;2022-12-18T10:54:54;29.17;;;11.07;;
26253;SDS011;53339;51.378;0.094;2022-12-18T10:57:38;29.13;;;12.95;;
26253;SDS011;53339;51.378;0.094;2022-12-18T11:02:52;35.90;;;14.70;;
26253;SDS011;53339;51.378;0.094;2022-12-18T11:05:31;27.88;;;13.30;;
26253;SDS011;53339;51.378;0.094;2022-12-18T11:08:00;29.70;;;14.27;;
26253;SDS011;53339;51.378;0.094;2022-12-18T11:10:30;38.88;;;13.77;;
26253;SDS011;53339;51.378;0.094;2022-12-18T11:13:15;28.05;;;11.40;;
26253;SDS011;53339;51.378;0.094;2022-12-18T11:15:46;51.53;;;18.58;;
26253;SDS011;53339;51.378;0.094;2022-12-18T11:18:16;30.90;;;11.65;;
26253;SDS011;53339;51.378;0.094;2022-12-18T11:20:49;33.88;;;13.95;;
26253;SDS011;53339;51.378;0.094;2022-12-18T11:23:24;29.20;;;11.57;;
26253;SDS011;53339;51.378;0.094;2022-12-18T11:25:56;26.40;;;12.02;;
26253;SDS011;53339;51.378;0.094;2022-12-18T11:31:22;41.45;;;15.15;;
26253;SDS011;53339;51.378;0.094;2022-12-18T11:36:54;33.65;;;13.27;;
26253;SDS011;53339;51.378;0.094;2022-12-18T11:39:34;34.28;;;12.13;;
26253;SDS011;53339;51.378;0.094;2022-12-18T11:44:46;35.55;;;16.42;;
26253;SDS011;53339;51.378;0.094;2022-12-18T11:50:14;39.50;;;16.98;;
26253;SDS011;53339;51.378;0.094;2022-12-18T11:52:50;27.52;;;13.13;;
26253;SDS011;53339;51.378;0.094;2022-12-18T12:00:43;34.92;;;14.68;;
26253;SDS011;53339;51.378;0.094;2022-12-18T12:03:50;39.30;;;15.15;;
26253;SDS011;53339;51.378;0.094;2022-12-18T12:20:49;29.42;;;14.40;;
26253;SDS011;53339;51.378;0.094;2022-12-18T12:26:26;36.10;;;15.18;;
26253;SDS011;53339;51.378;0.094;2022-12-18T12:31:54;34.88;;;14.40;;
26253;SDS011;53339;51.378;0.094;2022-12-18T12:37:26;40.90;;;16.02;;
26253;SDS011;53339;51.378;0.094;2022-12-18T12:40:23;34.33;;;12.68;;
26253;SDS011;53339;51.378;0.094;2022-12-18T12:46:07;34.85;;;13.98;;
26253;SDS011;53339;51.378;0.094;2022-12-18T12:48:36;41.53;;;16.15;;
26253;SDS011;53339;51.378;0.094;2022-12-18T12:51:13;38.58;;;15.73;;
26253;SDS011;53339;51.378;0.094;2022-12-18T12:53:42;48.80;;;16.05;;
26253;SDS011;53339;51.378;0.094;2022-12-18T12:56:13;46.78;;;17.42;;
26253;SDS011;53339;51.378;0.094;2022-12-18T13:02:10;35.47;;;13.70;;
26253;SDS011;53339;51.378;0.094;2022-12-18T13:04:52;35.45;;;14.93;;
26253;SDS011;53339;51.378;0.094;2022-12-18T13:12:56;31.13;;;12.88;;
26253;SDS011;53339;51.378;0.094;2022-12-18T13:15:36;31.88;;;13.90;;
26253;SDS011;53339;51.378;0.094;2022-12-18T13:20:47;37.85;;;14.07;;
26253;SDS011;53339;51.378;0.094;2022-12-18T13:34:17;30.13;;;13.45;;
26253;SDS011;53339;51.378;0.094;2022-12-18T13:36:53;33.03;;;13.05;;
26253;SDS011;53339;51.378;0.094;2022-12-18T13:44:34;30.65;;;11.35;;
26253;SDS011;53339;51.378;0.094;2022-12-18T13:47:24;29.00;;;12.75;;
26253;SDS011;53339;51.378;0.094;2022-12-18T13:49:53;27.02;;;10.65;;
26253;SDS011;53339;51.378;0.094;2022-12-18T13:52:25;28.45;;;11.43;;
26253;SDS011;53339;51.378;0.094;2022-12-18T13:55:01;34.15;;;12.48;;
26253;SDS011;53339;51.378;0.094;2022-12-18T13:57:36;26.23;;;11.38;;
26253;SDS011;53339;51.378;0.094;2022-12-18T14:02:50;29.75;;;10.90;;
26253;SDS011;53339;51.378;0.094;2022-12-18T14:05:22;27.23;;;11.32;;
26253;SDS011;53339;51.378;0.094;2022-12-18T14:07:53;27.88;;;13.02;;
26253;SDS011;53339;51.378;0.094;2022-12-18T14:10:21;26.02;;;12.55;;
26253;SDS011;53339;51.378;0.094;2022-12-18T14:13:08;27.17;;;12.95;;
26253;SDS011;53339;51.378;0.094;2022-12-18T14:15:43;31.23;;;11.57;;
26253;SDS011;53339;51.378;0.094;2022-12-18T14:18:24;31.40;;;11.85;;
26253;SDS011;53339;51.378;0.094;2022-12-18T14:21:03;19.48;;;10.10;;
26253;SDS011;53339;51.378;0.094;2022-12-18T14:23:33;25.02;;;11.77;;
26253;SDS011;53339;51.378;0.094;2022-12-18T14:26:17;28.83;;;10.80;;
26253;SDS011;53339;51.378;0.094;2022-12-18T14:28:48;28.60;;;10.30;;
26253;SDS011;53339;51.378;0.094;2022-12-18T14:31:26;24.58;;;10.18;;
26253;SDS011;53339;51.378;0.094;2022-12-18T14:33:56;25.85;;;10.30;;
26253;SDS011;53339;51.378;0.094;2022-12-18T14:36:24;23.77;;;9.48;;
26253;SDS011;53339;51.378;0.094;2022-12-18T14:38:56;29.48;;;11.20;;
26253;SDS011;53339;51.378;0.094;2022-12-18T14:41:25;23.40;;;10.15;;
26253;SDS011;53339;51.378;0.094;2022-12-18T14:43:54;22.42;;;9.65;;
26253;SDS011;53339;51.378;0.094;2022-12-18T14:51:57;22.40;;;10.85;;
26253;SDS011;53339;51.378;0.094;2022-12-18T14:54:27;24.05;;;9.35;;
26253;SDS011;53339;51.378;0.094;2022-12-18T14:57:02;25.15;;;9.80;;
26253;SDS011;53339;51.378;0.094;2022-12-18T14:59:47;26.05;;;10.25;;
26253;SDS011;53339;51.378;0.094;2022-12-18T15:05:04;22.25;;;9.05;;
26253;SDS011;53339;51.378;0.094;2022-12-18T15:07:54;20.83;;;9.48;;
26253;SDS011;53339;51.378;0.094;2022-12-18T15:10:29;24.20;;;9.82;;
26253;SDS011;53339;51.378;0.094;2022-12-18T15:18:09;25.42;;;10.65;;
26253;SDS011;53339;51.378;0.094;2022-12-18T15:23:28;22.27;;;10.10;;
26253;SDS011;53339;51.378;0.094;2022-12-18T15:28:51;19.08;;;9.15;;
26253;SDS011;53339;51.378;0.094;2022-12-18T15:31:40;24.45;;;9.80;;
26253;SDS011;53339;51.378;0.094;2022-12-18T15:36:35;22.00;;;9.45;;
26253;SDS011;53339;51.378;0.094;2022-12-18T15:39:05;24.63;;;10.05;;
26253;SDS011;53339;51.378;0.094;2022-12-18T15:41:33;24.23;;;9.85;;
26253;SDS011;53339;51.378;0.094;2022-12-18T15:44:02;22.58;;;9.23;;
26253;SDS011;53339;51.378;0.094;2022-12-18T15:46:48;25.17;;;10.27;;
26253;SDS011;53339;51.378;0.094;2022-12-18T15:49:15;22.52;;;9.02;;
26253;SDS011;53339;51.378;0.094;2022-12-18T15:51:43;49.53;;;11.63;;
26253;SDS011;53339;51.378;0.094;2022-12-18T15:54:12;24.92;;;9.98;;
26253;SDS011;53339;51.378;0.094;2022-12-18T15:56:42;24.48;;;7.97;;
26253;SDS011;53339;51.378;0.094;2022-12-18T15:59:28;17.80;;;8.40;;
26253;SDS011;53339;51.378;0.094;2022-12-18T16:01:56;17.83;;;8.30;;
26253;SDS011;53339;51.378;0.094;2022-12-18T16:04:23;19.20;;;8.15;;
26253;SDS011;53339;51.378;0.094;2022-12-18T16:06:52;16.17;;;7.07;;
26253;SDS011;53339;51.378;0.094;2022-12-18T16:09:39;20.13;;;7.60;;
26253;SDS011;53339;51.378;0.094;2022-12-18T16:12:11;21.45;;;9.68;;
26253;SDS011;53339;51.378;0.094;2022-12-18T16:14:43;21.48;;;8.85;;
26253;SDS011;53339;51.378;0.094;2022-12-18T16:17:12;30.83;;;11.52;;
26253;SDS011;53339;51.378;0.094;2022-12-18T16:19:40;17.80;;;7.03;;
26253;SDS011;53339;51.378;0.094;2022-12-18T16:22:17;17.60;;;8.50;;
26253;SDS011;53339;51.378;0.094;2022-12-18T16:24:49;16.00;;;7.95;;
26253;SDS011;53339;51.378;0.094;2022-12-18T16:27:18;14.27;;;7.15;;
26253;SDS011;53339;51.378;0.094;2022-12-18T16:29:46;13.85;;;6.63;;
26253;SDS011;53339;51.378;0.094;2022-12-18T16:32:15;15.27;;;7.15;;
26253;SDS011;53339;51.378;0.094;2022-12-18T16:34:45;12.95;;;6.57;;
26253;SDS011;53339;51.378;0.094;2022-12-18T16:37:13;18.90;;;8.15;;
26253;SDS011;53339;51.378;0.094;2022-12-18T16:39:42;15.05;;;7.18;;
26253;SDS011;53339;51.378;0.094;2022-12-18T16:42:14;15.00;;;7.25;;
26253;SDS011;53339;51.378;0.094;2022-12-18T16:44:46;15.45;;;7.53;;
26253;SDS011;53339;51.378;0.094;2022-12-18T16:47:14;11.20;;;6.05;;
26253;SDS011;53339;51.378;0.094;2022-12-18T16:49:43;19.77;;;6.72;;
26253;SDS011;53339;51.378;0.094;2022-12-18T16:52:17;14.73;;;8.60;;
26253;SDS011;53339;51.378;0.094;2022-12-18T16:54:45;13.93;;;6.65;;
26253;SDS011;53339;51.378;0.094;2022-12-18T16:57:14;15.32;;;8.40;;
26253;SDS011;53339;51.378;0.094;2022-12-18T16:59:43;15.60;;;7.38;;
26253;SDS011;53339;51.378;0.094;2022-12-18T17:02:12;18.50;;;8.85;;
26253;SDS011;53339;51.378;0.094;2022-12-18T17:04:59;13.93;;;6.65;;
26253;SDS011;53339;51.378;0.094;2022-12-18T17:07:27;14.48;;;7.10;;
26253;SDS011;53339;51.378;0.094;2022-12-18T17:09:54;12.73;;;6.05;;
26253;SDS011;53339;51.378;0.094;2022-12-18T17:12:22;17.55;;;7.82;;
26253;SDS011;53339;51.378;0.094;2022-12-18T17:14:50;15.70;;;9.05;;
26253;SDS011;53339;51.378;0.094;2022-12-18T17:17:18;18.15;;;7.57;;